createdAt,value
2023-01-19T00:00:49.503Z,76.25
2023-01-19T00:03:16.273Z,76.42
2023-01-19T00:05:43.926Z,76.60
2023-01-19T00:08:17.570Z,76.33
2023-01-19T00:10:50.981Z,76.03
2023-01-19T00:13:17.715Z,76.10
2023-01-19T00:15:44.289Z,76.11
2023-01-19T00:18:11.345Z,76.11
2023-01-19T00:20:41.518Z,76.43
2023-01-19T00:23:08.802Z,76.82
2023-01-19T00:25:42.261Z,77.05
2023-01-19T00:28:12.432Z,76.83
2023-01-19T00:30:39.626Z,76.26
2023-01-19T00:33:06.179Z,76.33
2023-01-19T00:35:34.586Z,76.33
2023-01-19T00:38:03.102Z,75.99
2023-01-19T00:40:29.688Z,76.02
2023-01-19T00:42:56.212Z,76.27
2023-01-19T00:45:24.234Z,76.65
2023-01-19T00:47:57.053Z,76.35
2023-01-19T00:50:25.272Z,76.15
2023-01-19T00:52:52.669Z,76.01
2023-01-19T00:55:19.320Z,77.31
2023-01-19T00:57:45.863Z,77.23
2023-01-19T01:00:16.342Z,77.11
2023-01-19T01:02:44.341Z,76.10
2023-01-19T01:05:12.213Z,75.84
2023-01-19T01:07:44.537Z,75.57
2023-01-19T01:10:13.906Z,75.18
2023-01-19T01:12:42.013Z,75.51
2023-01-19T01:15:22.891Z,76.14
2023-01-19T01:17:59.377Z,76.78
2023-01-19T01:23:26.473Z,77.27
2023-01-19T01:26:02.486Z,76.20
2023-01-19T01:28:29.304Z,75.70
2023-01-19T01:30:57.110Z,75.91
2023-01-19T01:33:39.950Z,77.29
2023-01-19T01:36:09.212Z,76.58
2023-01-19T01:38:35.748Z,75.85
2023-01-19T01:41:02.469Z,75.58
2023-01-19T01:43:43.723Z,77.14
2023-01-19T01:46:11.751Z,76.12
2023-01-19T01:48:40.408Z,75.83
2023-01-19T01:51:24.614Z,75.07
2023-01-19T01:54:10.294Z,76.39
2023-01-19T01:56:43.710Z,77.47
2023-01-19T01:59:25.877Z,76.88
2023-01-19T02:02:14.528Z,76.07
2023-01-19T02:04:47.455Z,76.79
2023-01-19T02:07:35.258Z,76.04
2023-01-19T02:10:20.611Z,76.26
2023-01-19T02:13:06.360Z,75.99
2023-01-19T02:15:33.156Z,75.80
2023-01-19T02:17:59.676Z,76.48
2023-01-19T02:20:29.717Z,76.02
2023-01-19T02:23:02.348Z,75.22
2023-01-19T02:25:29.221Z,75.73
2023-01-19T02:27:56.656Z,76.73
2023-01-19T02:30:23.506Z,75.67
2023-01-19T02:32:50.176Z,75.32
2023-01-19T02:35:16.828Z,75.47
2023-01-19T02:37:44.979Z,75.49
2023-01-19T02:40:14.163Z,76.51
2023-01-19T02:42:50.136Z,76.12
2023-01-19T02:45:20.656Z,76.38
2023-01-19T02:47:50.062Z,76.17
2023-01-19T02:50:51.706Z,77.02
2023-01-19T02:53:45.772Z,77.80
2023-01-19T02:56:39.518Z,77.63
2023-01-19T02:59:23.289Z,78.85
2023-01-19T03:02:05.747Z,78.12
2023-01-19T03:05:05.034Z,77.35
2023-01-19T03:07:57.518Z,77.59
2023-01-19T03:10:31.552Z,76.31
2023-01-19T03:13:04.275Z,77.02
2023-01-19T03:15:37.063Z,76.77
2023-01-19T03:18:08.951Z,76.36
2023-01-19T03:20:36.662Z,76.72
2023-01-19T03:23:08.189Z,76.71
2023-01-19T03:25:40.323Z,78.05
2023-01-19T03:28:06.901Z,77.60
2023-01-19T03:30:40.372Z,77.02
2023-01-19T03:33:17.429Z,77.10
2023-01-19T03:35:49.235Z,77.40
2023-01-19T03:38:17.194Z,77.82
2023-01-19T03:40:45.162Z,78.60
2023-01-19T03:43:13.149Z,77.71
2023-01-19T03:45:40.172Z,76.71
2023-01-19T03:48:07.339Z,75.34
2023-01-19T03:50:33.961Z,75.76
2023-01-19T03:53:09.628Z,75.29
2023-01-19T03:55:38.409Z,75.41
2023-01-19T03:58:05.244Z,75.64
2023-01-19T04:00:32.363Z,76.30
2023-01-19T04:02:59.303Z,76.93
2023-01-19T04:05:26.042Z,76.37
2023-01-19T04:07:52.871Z,76.56
2023-01-19T04:10:20.103Z,76.32
2023-01-19T04:12:47.096Z,76.27
2023-01-19T04:15:14.492Z,76.16
2023-01-19T04:17:41.873Z,75.78
2023-01-19T04:20:09.303Z,76.05
2023-01-19T04:22:35.951Z,75.91
2023-01-19T04:25:03.056Z,75.45
2023-01-19T04:27:29.551Z,75.54
2023-01-19T04:29:56.432Z,76.04
2023-01-19T04:32:23.012Z,76.07
2023-01-19T04:34:49.534Z,75.81
2023-01-19T04:37:16.140Z,75.69
2023-01-19T04:39:42.955Z,76.38
2023-01-19T04:42:09.522Z,75.85
2023-01-19T04:44:36.075Z,76.33
2023-01-19T04:47:03.337Z,76.58
2023-01-19T04:49:29.846Z,76.26
2023-01-19T04:51:56.456Z,76.15
2023-01-19T04:54:22.995Z,76.65
2023-01-19T04:56:49.564Z,76.92
2023-01-19T04:59:16.086Z,76.30
2023-01-19T05:01:42.683Z,75.49
2023-01-19T05:04:09.232Z,75.16
2023-01-19T05:06:35.855Z,75.21
2023-01-19T05:09:02.421Z,75.25
2023-01-19T05:11:28.940Z,75.57
2023-01-19T05:13:55.482Z,75.56
2023-01-19T05:16:22.067Z,75.88
2023-01-19T05:18:48.621Z,75.81
2023-01-19T05:21:15.241Z,75.56
2023-01-19T05:23:41.813Z,75.74
2023-01-19T05:26:09.609Z,75.46
2023-01-19T05:28:37.190Z,75.22
2023-01-19T05:31:04.501Z,75.43
2023-01-19T05:33:31.171Z,75.40
2023-01-19T05:35:57.707Z,75.35
2023-01-19T05:38:34.652Z,75.49
2023-01-19T05:41:02.422Z,75.79
2023-01-19T05:43:28.973Z,76.02
2023-01-19T05:45:55.527Z,75.84
2023-01-19T05:48:22.070Z,76.62
2023-01-19T05:50:49.645Z,75.63
2023-01-19T05:53:17.152Z,75.18
2023-01-19T05:55:43.780Z,75.05
2023-01-19T05:58:10.302Z,76.62
2023-01-19T06:00:36.878Z,77.08
2023-01-19T06:03:04.053Z,77.18
2023-01-19T06:05:30.889Z,76.97
2023-01-19T06:07:57.524Z,75.92
2023-01-19T06:10:24.085Z,75.71
2023-01-19T06:12:52.455Z,75.31
2023-01-19T06:15:19.211Z,75.19
2023-01-19T06:17:45.813Z,75.02
2023-01-19T06:20:14.062Z,75.04
2023-01-19T06:22:40.664Z,75.62
2023-01-19T06:25:07.413Z,76.20
2023-01-19T06:27:33.956Z,75.42
2023-01-19T06:30:00.495Z,75.74
2023-01-19T06:32:27.181Z,75.38
2023-01-19T06:34:54.205Z,75.57
2023-01-19T06:37:21.074Z,75.08
2023-01-19T06:39:47.859Z,74.60
2023-01-19T06:42:14.616Z,75.09
2023-01-19T06:44:47.343Z,76.20
2023-01-19T06:47:16.321Z,75.67
2023-01-19T06:49:43.453Z,75.32
2023-01-19T06:52:11.413Z,75.66
2023-01-19T06:54:38.242Z,77.12
2023-01-19T06:57:04.820Z,76.78
2023-01-19T06:59:31.876Z,76.24
2023-01-19T07:01:59.068Z,76.24
2023-01-19T07:04:27.072Z,76.04
2023-01-19T07:06:53.740Z,76.76
2023-01-19T07:09:20.505Z,76.90
2023-01-19T07:11:48.045Z,76.35
2023-01-19T07:14:15.045Z,76.26
2023-01-19T07:16:41.637Z,76.40
2023-01-19T07:19:10.791Z,77.20
2023-01-19T07:21:37.612Z,77.19
2023-01-19T07:24:04.308Z,76.91
2023-01-19T07:26:30.946Z,77.24
2023-01-19T07:28:57.538Z,77.23
2023-01-19T07:31:24.233Z,76.21
2023-01-19T07:33:50.822Z,75.78
2023-01-19T07:36:17.504Z,75.99
2023-01-19T07:38:44.148Z,76.09
2023-01-19T07:41:11.340Z,76.27
2023-01-19T07:43:37.890Z,76.12
2023-01-19T07:46:06.280Z,76.34
2023-01-19T07:48:32.876Z,76.34
2023-01-19T07:51:13.046Z,76.75
2023-01-19T07:53:41.856Z,77.12
2023-01-19T07:56:08.851Z,76.67
2023-01-19T07:58:35.382Z,76.47
2023-01-19T08:01:09.593Z,76.00
2023-01-19T08:03:36.251Z,76.03
2023-01-19T08:06:05.117Z,76.42
2023-01-19T08:08:32.924Z,76.15
2023-01-19T08:11:00.188Z,76.20
2023-01-19T08:13:27.008Z,76.88
2023-01-19T08:15:54.240Z,76.46
2023-01-19T08:18:21.095Z,75.18
2023-01-19T08:20:47.754Z,75.69
2023-01-19T08:23:14.373Z,76.13
2023-01-19T08:25:44.343Z,76.45
2023-01-19T08:28:13.190Z,76.24
2023-01-19T08:30:40.742Z,74.70
2023-01-19T08:33:08.230Z,74.06
2023-01-19T08:35:41.299Z,74.46
2023-01-19T08:38:09.098Z,74.21
2023-01-19T08:40:39.856Z,74.60
2023-01-19T08:43:09.200Z,74.96
2023-01-19T08:45:36.915Z,74.30
2023-01-19T08:48:06.275Z,74.66
2023-01-19T08:50:34.158Z,74.81
2023-01-19T08:53:02.739Z,74.26
2023-01-19T08:55:30.411Z,73.89
2023-01-19T08:57:59.992Z,73.80
2023-01-19T09:00:27.388Z,72.88
2023-01-19T09:02:54.953Z,72.37
2023-01-19T09:05:21.620Z,71.91
2023-01-19T09:07:48.291Z,68.83
2023-01-19T09:10:16.217Z,68.82
2023-01-19T09:12:44.892Z,68.36
2023-01-19T09:15:13.904Z,68.44
2023-01-19T09:17:42.216Z,67.02
2023-01-19T09:20:10.848Z,67.13
2023-01-19T09:22:38.504Z,65.44
2023-01-19T09:25:06.659Z,65.94
2023-01-19T09:27:33.271Z,65.53
2023-01-19T09:29:59.833Z,65.77
2023-01-19T09:32:26.379Z,66.27
2023-01-19T09:34:55.009Z,67.00
2023-01-19T09:37:21.575Z,66.26
2023-01-19T09:39:48.205Z,66.33
2023-01-19T09:42:31.181Z,66.45
2023-01-19T09:44:57.718Z,65.16
2023-01-19T09:47:29.501Z,64.25
2023-01-19T09:50:06.751Z,61.76
2023-01-19T09:52:37.441Z,62.60
2023-01-19T09:55:04.080Z,61.08
2023-01-19T09:57:32.135Z,60.46
2023-01-19T09:59:59.649Z,61.71
2023-01-19T10:02:35.488Z,60.61
2023-01-19T10:05:31.740Z,61.70
2023-01-19T10:08:25.965Z,60.53
2023-01-19T10:10:54.685Z,62.92
2023-01-19T10:13:43.485Z,63.17
2023-01-19T10:16:26.096Z,62.07
2023-01-19T10:18:56.521Z,62.88
2023-01-19T10:21:43.191Z,62.85
2023-01-19T10:24:33.233Z,62.50
2023-01-19T10:27:00.476Z,63.72
2023-01-19T10:29:36.364Z,63.60
2023-01-19T10:32:14.779Z,63.35
2023-01-19T10:34:41.752Z,63.79
2023-01-19T10:37:29.594Z,63.29
2023-01-19T10:40:02.284Z,62.13
2023-01-19T10:42:30.245Z,63.30
2023-01-19T10:44:56.990Z,63.49
2023-01-19T10:47:33.445Z,63.49
2023-01-19T10:50:00.093Z,62.71
2023-01-19T10:52:36.286Z,62.30
2023-01-19T10:55:06.483Z,63.15
2023-01-19T10:57:40.754Z,63.46
2023-01-19T11:00:31.931Z,62.88
2023-01-19T11:02:58.870Z,63.66
2023-01-19T11:05:28.960Z,63.61
2023-01-19T11:07:56.620Z,63.03
2023-01-19T11:10:28.686Z,63.89
2023-01-19T11:13:12.338Z,63.81
2023-01-19T11:15:41.870Z,63.15
2023-01-19T11:18:08.709Z,64.38
2023-01-19T11:20:54.040Z,61.60
2023-01-19T11:23:34.470Z,62.25
2023-01-19T11:26:05.311Z,62.59
2023-01-19T11:28:36.415Z,61.02
2023-01-19T11:31:17.668Z,62.28
2023-01-19T11:33:48.396Z,62.66
2023-01-19T11:36:16.293Z,63.12
2023-01-19T11:38:44.755Z,63.29
2023-01-19T11:41:29.667Z,62.69
2023-01-19T11:44:20.731Z,62.37
2023-01-19T11:46:52.515Z,62.95
2023-01-19T11:49:18.849Z,62.87
2023-01-19T11:51:56.579Z,63.28
2023-01-19T11:54:33.235Z,62.15
2023-01-19T11:57:00.526Z,63.05
2023-01-19T11:59:27.155Z,63.88
2023-01-19T12:01:57.852Z,63.28
2023-01-19T12:04:33.379Z,63.70
2023-01-19T12:07:07.446Z,63.83
2023-01-19T12:09:42.735Z,62.93
2023-01-19T12:12:24.227Z,63.73
2023-01-19T12:14:54.777Z,63.53
2023-01-19T12:17:30.034Z,64.09
2023-01-19T12:20:06.700Z,64.54
2023-01-19T12:22:42.894Z,64.78
2023-01-19T12:25:25.144Z,63.83
2023-01-19T12:27:53.304Z,64.70
2023-01-19T12:30:26.483Z,64.17
2023-01-19T12:33:21.807Z,63.01
2023-01-19T12:36:16.460Z,62.94
2023-01-19T12:38:46.022Z,63.61
2023-01-19T12:41:18.310Z,61.98
2023-01-19T12:43:44.920Z,63.08
2023-01-19T12:46:31.211Z,62.64
2023-01-19T12:49:20.353Z,62.93
2023-01-19T12:51:47.862Z,63.44
2023-01-19T12:54:43.579Z,64.16
2023-01-19T12:57:25.112Z,64.28
2023-01-19T13:00:00.036Z,64.33
2023-01-19T13:02:26.970Z,64.35
2023-01-19T13:05:15.168Z,64.77
2023-01-19T13:08:03.006Z,64.11
2023-01-19T13:11:13.036Z,64.03
2023-01-19T13:13:48.389Z,64.03
2023-01-19T13:16:17.925Z,63.97
2023-01-19T13:19:01.624Z,64.73
2023-01-19T13:21:39.097Z,64.16
2023-01-19T13:24:08.263Z,65.06
2023-01-19T13:26:41.507Z,64.97
2023-01-19T13:29:14.287Z,63.81
2023-01-19T13:31:44.526Z,64.32
2023-01-19T13:34:18.335Z,64.72
2023-01-19T13:36:47.472Z,63.44
2023-01-19T13:39:18.710Z,62.84
2023-01-19T13:41:49.834Z,63.92
2023-01-19T13:44:33.087Z,63.62
2023-01-19T13:47:03.516Z,63.48
2023-01-19T13:49:37.060Z,64.05
2023-01-19T13:52:17.342Z,63.83
2023-01-19T13:54:54.592Z,64.25
2023-01-19T13:57:27.128Z,64.94
2023-01-19T14:00:16.411Z,65.03
2023-01-19T14:03:01.741Z,65.53
2023-01-19T14:05:36.250Z,64.69
2023-01-19T14:08:08.726Z,65.31
2023-01-19T14:10:37.094Z,65.39
2023-01-19T14:13:06.827Z,64.96
2023-01-19T14:15:34.658Z,64.90
2023-01-19T14:18:13.718Z,63.62
2023-01-19T14:20:41.071Z,64.72
2023-01-19T14:23:36.215Z,65.08
2023-01-19T14:26:02.853Z,65.55
2023-01-19T14:28:32.096Z,64.96
2023-01-19T14:31:03.874Z,65.01
2023-01-19T14:33:40.945Z,65.23
2023-01-19T14:36:13.444Z,65.87
2023-01-19T14:38:48.616Z,66.17
2023-01-19T14:41:25.538Z,66.32
2023-01-19T14:43:52.373Z,66.15
2023-01-19T14:46:20.369Z,66.19
2023-01-19T14:48:49.061Z,66.30
2023-01-19T14:51:20.466Z,66.45
2023-01-19T14:53:53.104Z,67.87
2023-01-19T14:56:28.608Z,67.61
2023-01-19T14:58:56.797Z,67.68
2023-01-19T15:01:28.470Z,66.61
2023-01-19T15:03:59.198Z,65.78
2023-01-19T15:06:27.127Z,65.39
2023-01-19T15:08:56.076Z,67.86
2023-01-19T15:11:30.213Z,68.07
2023-01-19T15:13:57.259Z,66.89
2023-01-19T15:16:24.468Z,68.45
2023-01-19T15:18:53.954Z,67.72
2023-01-19T15:21:28.763Z,67.78
2023-01-19T15:23:55.512Z,66.48
2023-01-19T15:26:27.660Z,66.65
2023-01-19T15:28:56.367Z,68.18
2023-01-19T15:31:25.494Z,67.44
2023-01-19T15:33:52.105Z,67.06
2023-01-19T15:36:21.327Z,67.72
2023-01-19T15:38:50.781Z,68.06
2023-01-19T15:41:29.775Z,68.51
2023-01-19T15:43:56.487Z,68.45
2023-01-19T15:46:25.080Z,68.26
2023-01-19T15:48:52.756Z,68.83
2023-01-19T15:51:22.039Z,69.08
2023-01-19T15:53:49.047Z,69.22
2023-01-19T15:56:23.578Z,69.10
2023-01-19T15:58:51.542Z,69.56
2023-01-19T16:01:21.698Z,69.63
2023-01-19T16:03:49.299Z,70.04
2023-01-19T16:06:17.805Z,70.84
2023-01-19T16:08:44.727Z,70.43
2023-01-19T16:11:14.742Z,70.40
2023-01-19T16:13:45.754Z,70.73
2023-01-19T16:16:18.304Z,70.80
2023-01-19T16:18:45.581Z,71.16
2023-01-19T16:21:12.428Z,71.80
2023-01-19T16:23:39.265Z,71.26
2023-01-19T16:26:22.255Z,71.90
2023-01-19T16:28:48.811Z,71.90
2023-01-19T16:31:16.582Z,72.02
2023-01-19T16:33:44.995Z,71.92
2023-01-19T16:36:30.051Z,71.80
2023-01-19T16:39:02.079Z,72.92
2023-01-19T16:41:28.870Z,73.74
2023-01-19T16:43:57.063Z,74.90
2023-01-19T16:46:26.397Z,74.60
2023-01-19T16:48:53.420Z,74.63
2023-01-19T16:51:20.200Z,74.59
2023-01-19T16:53:49.740Z,74.01
2023-01-19T16:56:17.027Z,73.48
2023-01-19T16:58:43.798Z,73.89
2023-01-19T17:01:13.724Z,73.65
2023-01-19T17:03:41.203Z,72.93
2023-01-19T17:06:10.047Z,74.11
2023-01-19T17:08:36.872Z,73.77
2023-01-19T17:11:13.127Z,73.30
2023-01-19T17:13:39.678Z,75.03
2023-01-19T17:16:06.510Z,75.71
2023-01-19T17:18:35.447Z,75.52
2023-01-19T17:21:04.875Z,75.74
2023-01-19T17:23:31.831Z,75.94
2023-01-19T17:25:59.425Z,75.82
2023-01-19T17:28:26.343Z,75.79
2023-01-19T17:30:53.377Z,75.65
2023-01-19T17:33:24.807Z,75.00
2023-01-19T17:35:51.357Z,74.55
2023-01-19T17:38:17.890Z,74.38
2023-01-19T17:40:44.437Z,74.13
2023-01-19T17:43:10.960Z,74.30
2023-01-19T17:45:38.036Z,75.26
2023-01-19T17:48:05.226Z,75.81
2023-01-19T17:50:34.655Z,75.68
2023-01-19T17:53:01.336Z,75.85
2023-01-19T17:55:27.949Z,75.86
2023-01-19T17:57:54.531Z,75.40
2023-01-19T18:00:21.455Z,75.73
2023-01-19T18:02:51.784Z,75.81
2023-01-19T18:05:19.213Z,75.57
2023-01-19T18:07:46.960Z,75.11
2023-01-19T18:10:15.071Z,74.20
2023-01-19T18:12:42.085Z,74.79
2023-01-19T18:15:09.628Z,75.76
2023-01-19T18:17:36.149Z,75.63
2023-01-19T18:20:03.228Z,75.53
2023-01-19T18:22:29.857Z,74.70
2023-01-19T18:24:56.451Z,74.74
2023-01-19T18:27:23.125Z,76.11
2023-01-19T18:29:49.714Z,76.04
2023-01-19T18:32:16.353Z,75.94
2023-01-19T18:34:43.223Z,75.22
2023-01-19T18:37:09.847Z,74.85
2023-01-19T18:39:36.532Z,75.68
2023-01-19T18:42:03.662Z,75.63
2023-01-19T18:44:30.693Z,75.76
2023-01-19T18:47:00.007Z,76.69
2023-01-19T18:49:26.761Z,75.55
2023-01-19T18:51:53.328Z,75.20
2023-01-19T18:54:19.955Z,75.37
2023-01-19T18:56:46.539Z,75.12
2023-01-19T18:59:13.081Z,75.40
2023-01-19T19:01:39.786Z,76.58
2023-01-19T19:04:08.143Z,77.19
2023-01-19T19:06:35.814Z,77.49
2023-01-19T19:09:03.349Z,76.53
2023-01-19T19:11:30.186Z,75.85
2023-01-19T19:13:59.748Z,75.82
2023-01-19T19:16:26.698Z,76.48
2023-01-19T19:18:53.200Z,76.69
2023-01-19T19:21:21.304Z,76.78
2023-01-19T19:23:56.297Z,77.02
2023-01-19T19:26:24.294Z,76.94
2023-01-19T19:28:51.143Z,76.94
2023-01-19T19:31:20.603Z,76.34
2023-01-19T19:33:48.672Z,76.99
2023-01-19T19:36:15.387Z,76.69
2023-01-19T19:38:42.923Z,76.97
2023-01-19T19:41:12.681Z,77.12
2023-01-19T19:43:39.688Z,77.99
2023-01-19T19:46:08.651Z,78.07
2023-01-19T19:48:38.142Z,77.51
2023-01-19T19:51:18.152Z,77.17
2023-01-19T19:53:45.869Z,76.83
2023-01-19T19:56:13.193Z,77.16
2023-01-19T19:58:41.806Z,76.58
2023-01-19T20:01:14.202Z,77.00
2023-01-19T20:03:41.788Z,77.56
2023-01-19T20:06:13.717Z,77.54
2023-01-19T20:08:40.653Z,77.72
2023-01-19T20:11:16.422Z,76.81
2023-01-19T20:13:44.540Z,76.11
2023-01-19T20:16:14.022Z,75.93
2023-01-19T20:18:42.940Z,76.75
2023-01-19T20:21:25.365Z,77.36
2023-01-19T20:23:53.065Z,76.88
2023-01-19T20:26:22.950Z,76.81
2023-01-19T20:28:49.537Z,76.87
2023-01-19T20:31:19.597Z,76.51
2023-01-19T20:33:47.890Z,76.10
2023-01-19T20:36:14.675Z,75.75
2023-01-19T20:38:42.227Z,77.05
2023-01-19T20:41:10.371Z,76.41
2023-01-19T20:43:37.391Z,76.25
2023-01-19T20:46:04.540Z,76.54
2023-01-19T20:48:31.530Z,76.59
2023-01-19T20:51:10.240Z,76.55
2023-01-19T20:53:38.464Z,76.31
2023-01-19T20:56:11.369Z,76.46
2023-01-19T20:58:38.400Z,76.38
2023-01-19T21:01:12.998Z,77.11
2023-01-19T21:03:39.672Z,77.21
2023-01-19T21:06:06.720Z,77.13
2023-01-19T21:08:33.593Z,77.17
2023-01-19T21:11:00.252Z,76.98
2023-01-19T21:13:27.398Z,77.55
2023-01-19T21:15:53.952Z,77.93
2023-01-19T21:18:20.483Z,77.65
2023-01-19T21:20:50.100Z,77.33
2023-01-19T21:23:18.980Z,76.55
2023-01-19T21:25:50.843Z,75.89
2023-01-19T21:28:18.723Z,76.04
2023-01-19T21:30:46.135Z,76.54
2023-01-19T21:33:12.807Z,77.34
2023-01-19T21:35:39.877Z,77.75
2023-01-19T21:38:08.851Z,77.31
2023-01-19T21:40:36.787Z,78.04
2023-01-19T21:43:03.332Z,77.44
2023-01-19T21:45:29.863Z,76.69
2023-01-19T21:47:56.397Z,76.64
2023-01-19T21:50:23.100Z,77.00
2023-01-19T21:52:49.621Z,77.72
2023-01-19T21:55:16.923Z,77.77
2023-01-19T21:57:43.495Z,78.08
2023-01-19T22:00:10.555Z,78.02
2023-01-19T22:02:39.158Z,78.13
2023-01-19T22:05:06.696Z,77.92
2023-01-19T22:07:33.526Z,78.27
2023-01-19T22:10:00.357Z,77.63
2023-01-19T22:12:27.074Z,77.71
2023-01-19T22:14:53.803Z,77.59
2023-01-19T22:17:20.407Z,77.65
2023-01-19T22:19:48.190Z,77.97
2023-01-19T22:22:15.045Z,77.86
2023-01-19T22:24:46.497Z,78.23
2023-01-19T22:27:13.499Z,78.34
2023-01-19T22:29:40.044Z,77.45
2023-01-19T22:32:07.090Z,77.14
2023-01-19T22:34:34.036Z,76.25
2023-01-19T22:37:00.822Z,75.91
2023-01-19T22:39:27.497Z,76.62
2023-01-19T22:41:54.013Z,76.99
2023-01-19T22:44:21.677Z,77.50
2023-01-19T22:46:49.792Z,77.05
2023-01-19T22:49:17.973Z,77.56
2023-01-19T22:51:44.943Z,77.07
2023-01-19T22:54:12.194Z,76.11
2023-01-19T22:56:40.500Z,77.22
2023-01-19T22:59:07.441Z,78.06
2023-01-19T23:01:39.019Z,77.73
2023-01-19T23:04:06.779Z,77.24
2023-01-19T23:06:36.171Z,76.58
2023-01-19T23:09:09.722Z,76.68
2023-01-19T23:11:41.892Z,77.59
2023-01-19T23:14:14.745Z,78.17
2023-01-19T23:16:41.750Z,77.58
2023-01-19T23:19:11.043Z,77.48
2023-01-19T23:21:37.598Z,76.86
2023-01-19T23:24:05.058Z,77.19
2023-01-19T23:26:37.898Z,77.84
2023-01-19T23:29:13.452Z,77.23
2023-01-19T23:31:43.472Z,76.65
2023-01-19T23:34:12.047Z,77.08
2023-01-19T23:36:39.949Z,76.74
2023-01-19T23:39:15.694Z,77.30
2023-01-19T23:41:42.340Z,77.27
2023-01-19T23:44:09.106Z,77.75
2023-01-19T23:46:35.681Z,77.34
2023-01-19T23:49:02.363Z,77.41
2023-01-19T23:51:30.717Z,77.07
2023-01-19T23:53:59.082Z,77.15
2023-01-19T23:56:30.864Z,77.28
2023-01-19T23:59:01.539Z,76.29
